sensor_id;sensor_type;location;lat;lon;timestamp;pressure;altitude;pressure_sealevel;temperature;humidity
51359;BME280;37448;51.588;7.248;2023-12-04T00:00:28;100819.66;;;-0.06;99.35
51359;BME280;37448;51.588;7.248;2023-12-04T00:02:28;100816.28;;;-0.05;99.26
51359;BME280;37448;51.588;7.248;2023-12-04T00:04:28;100818.00;;;-0.04;99.08
51359;BME280;37448;51.588;7.248;2023-12-04T00:06:29;100819.66;;;-0.06;98.53
51359;BME280;37448;51.588;7.248;2023-12-04T00:08:29;100811.97;;;-0.06;99.33
51359;BME280;37448;51.588;7.248;2023-12-04T00:10:30;100812.81;;;-0.06;98.89
51359;BME280;37448;51.588;7.248;2023-12-04T00:12:30;100806.00;;;-0.05;99.16
51359;BME280;37448;51.588;7.248;2023-12-04T00:14:30;100807.66;;;-0.07;99.58
51359;BME280;37448;51.588;7.248;2023-12-04T00:16:33;100803.38;;;-0.08;99.42
51359;BME280;37448;51.588;7.248;2023-12-04T00:18:34;100800.81;;;-0.08;98.85
51359;BME280;37448;51.588;7.248;2023-12-04T00:20:35;100799.03;;;-0.09;98.35
51359;BME280;37448;51.588;7.248;2023-12-04T00:22:36;100790.44;;;-0.11;99.01
51359;BME280;37448;51.588;7.248;2023-12-04T00:24:37;100790.34;;;-0.14;98.35
51359;BME280;37448;51.588;7.248;2023-12-04T00:26:37;100790.41;;;-0.13;98.91
51359;BME280;37448;51.588;7.248;2023-12-04T00:28:39;100797.22;;;-0.13;98.40
51359;BME280;37448;51.588;7.248;2023-12-04T00:30:39;100793.91;;;-0.09;98.86
51359;BME280;37448;51.588;7.248;2023-12-04T00:32:39;100793.81;;;-0.12;98.61
51359;BME280;37448;51.588;7.248;2023-12-04T00:34:40;100789.53;;;-0.13;97.61
51359;BME280;37448;51.588;7.248;2023-12-04T00:36:40;100781.84;;;-0.13;97.77
51359;BME280;37448;51.588;7.248;2023-12-04T00:38:41;100773.31;;;-0.12;98.72
51359;BME280;37448;51.588;7.248;2023-12-04T00:40:41;100776.72;;;-0.13;98.35
51359;BME280;37448;51.588;7.248;2023-12-04T00:42:41;100771.50;;;-0.17;97.94
51359;BME280;37448;51.588;7.248;2023-12-04T00:44:42;100774.13;;;-0.15;97.08
51359;BME280;37448;51.588;7.248;2023-12-04T00:46:42;100773.31;;;-0.12;97.44
51359;BME280;37448;51.588;7.248;2023-12-04T00:48:42;100768.19;;;-0.12;97.95
51359;BME280;37448;51.588;7.248;2023-12-04T00:50:43;100774.16;;;-0.13;97.18
51359;BME280;37448;51.588;7.248;2023-12-04T00:52:43;100771.50;;;-0.17;94.06
51359;BME280;37448;51.588;7.248;2023-12-04T00:54:43;100764.81;;;-0.11;96.85
51359;BME280;37448;51.588;7.248;2023-12-04T00:56:44;100752.81;;;-0.12;97.03
51359;BME280;37448;51.588;7.248;2023-12-04T00:58:44;100756.28;;;-0.10;96.55
51359;BME280;37448;51.588;7.248;2023-12-04T01:00:44;100752.03;;;-0.10;97.28
51359;BME280;37448;51.588;7.248;2023-12-04T01:02:45;100740.91;;;-0.10;97.20
51359;BME280;37448;51.588;7.248;2023-12-04T01:04:45;100741.72;;;-0.11;95.89
51359;BME280;37448;51.588;7.248;2023-12-04T01:06:45;100735.78;;;-0.10;97.73
51359;BME280;37448;51.588;7.248;2023-12-04T01:08:46;100738.34;;;-0.10;97.78
51359;BME280;37448;51.588;7.248;2023-12-04T01:10:46;100737.44;;;-0.12;95.95
51359;BME280;37448;51.588;7.248;2023-12-04T01:12:47;100739.28;;;-0.08;96.39
51359;BME280;37448;51.588;7.248;2023-12-04T01:14:47;100731.59;;;-0.08;96.57
51359;BME280;37448;51.588;7.248;2023-12-04T01:16:47;100734.03;;;-0.11;95.51
51359;BME280;37448;51.588;7.248;2023-12-04T01:18:48;100727.19;;;-0.12;96.13
51359;BME280;37448;51.588;7.248;2023-12-04T01:20:48;100728.06;;;-0.12;94.40
51359;BME280;37448;51.588;7.248;2023-12-04T01:22:49;100727.19;;;-0.12;94.27
51359;BME280;37448;51.588;7.248;2023-12-04T01:24:49;100725.44;;;-0.13;93.56
51359;BME280;37448;51.588;7.248;2023-12-04T01:26:49;100720.41;;;-0.10;94.76
51359;BME280;37448;51.588;7.248;2023-12-04T01:28:50;100722.09;;;-0.11;95.94
51359;BME280;37448;51.588;7.248;2023-12-04T01:30:50;100715.25;;;-0.10;96.46
51359;BME280;37448;51.588;7.248;2023-12-04T01:32:50;100721.28;;;-0.10;97.02
51359;BME280;37448;51.588;7.248;2023-12-04T01:34:51;100717.88;;;-0.09;97.59
51359;BME280;37448;51.588;7.248;2023-12-04T01:36:51;100717.00;;;-0.09;96.88
51359;BME280;37448;51.588;7.248;2023-12-04T01:38:51;100713.53;;;-0.11;97.05
51359;BME280;37448;51.588;7.248;2023-12-04T01:40:52;100706.66;;;-0.12;95.25
51359;BME280;37448;51.588;7.248;2023-12-04T01:42:52;100704.09;;;-0.12;96.11
51359;BME280;37448;51.588;7.248;2023-12-04T01:44:54;100708.53;;;-0.08;97.90
51359;BME280;37448;51.588;7.248;2023-12-04T01:46:55;100699.88;;;-0.10;97.75
51359;BME280;37448;51.588;7.248;2023-12-04T01:48:58;100694.75;;;-0.10;96.50
51359;BME280;37448;51.588;7.248;2023-12-04T01:51:02;100691.28;;;-0.12;94.93
51359;BME280;37448;51.588;7.248;2023-12-04T01:53:03;100687.88;;;-0.13;95.26
51359;BME280;37448;51.588;7.248;2023-12-04T01:55:06;100696.41;;;-0.12;95.30
51359;BME280;37448;51.588;7.248;2023-12-04T01:57:08;100684.41;;;-0.15;94.37
51359;BME280;37448;51.588;7.248;2023-12-04T01:59:09;100682.69;;;-0.14;95.97
51359;BME280;37448;51.588;7.248;2023-12-04T02:01:10;100687.81;;;-0.14;97.00
51359;BME280;37448;51.588;7.248;2023-12-04T02:03:11;100681.75;;;-0.18;96.42
51359;BME280;37448;51.588;7.248;2023-12-04T02:05:12;100691.06;;;-0.22;96.15
51359;BME280;37448;51.588;7.248;2023-12-04T02:07:14;100675.66;;;-0.22;97.60
51359;BME280;37448;51.588;7.248;2023-12-04T02:09:15;100674.78;;;-0.22;97.75
51359;BME280;37448;51.588;7.248;2023-12-04T02:11:16;100677.31;;;-0.24;98.18
51359;BME280;37448;51.588;7.248;2023-12-04T02:13:16;100674.69;;;-0.27;98.24
51359;BME280;37448;51.588;7.248;2023-12-04T02:15:17;100678.94;;;-0.27;98.45
51359;BME280;37448;51.588;7.248;2023-12-04T02:17:18;100682.28;;;-0.30;96.87
51359;BME280;37448;51.588;7.248;2023-12-04T02:19:20;100675.53;;;-0.26;98.99
51359;BME280;37448;51.588;7.248;2023-12-04T02:21:21;100677.16;;;-0.30;97.10
51359;BME280;37448;51.588;7.248;2023-12-04T02:23:21;100678.00;;;-0.30;97.82
51359;BME280;37448;51.588;7.248;2023-12-04T02:25:21;100678.81;;;-0.32;96.42
51359;BME280;37448;51.588;7.248;2023-12-04T02:27:29;100678.91;;;-0.29;96.33
51359;BME280;37448;51.588;7.248;2023-12-04T02:29:38;100678.91;;;-0.29;97.37
51359;BME280;37448;51.588;7.248;2023-12-04T02:31:40;100682.28;;;-0.30;95.81
51359;BME280;37448;51.588;7.248;2023-12-04T02:33:42;100679.81;;;-0.27;97.07
51359;BME280;37448;51.588;7.248;2023-12-04T02:35:43;100669.50;;;-0.28;98.06
51359;BME280;37448;51.588;7.248;2023-12-04T02:37:45;100668.66;;;-0.29;97.61
51359;BME280;37448;51.588;7.248;2023-12-04T02:39:46;100667.03;;;-0.25;96.92
51359;BME280;37448;51.588;7.248;2023-12-04T02:41:46;100661.13;;;-0.23;97.91
51359;BME280;37448;51.588;7.248;2023-12-04T02:43:46;100656.00;;;-0.23;97.54
51359;BME280;37448;51.588;7.248;2023-12-04T02:45:47;100654.28;;;-0.22;99.06
51359;BME280;37448;51.588;7.248;2023-12-04T02:47:47;100648.31;;;-0.23;98.14
51359;BME280;37448;51.588;7.248;2023-12-04T02:49:48;100650.03;;;-0.22;99.00
51359;BME280;37448;51.588;7.248;2023-12-04T02:51:48;100650.88;;;-0.23;97.49
51359;BME280;37448;51.588;7.248;2023-12-04T02:53:49;100652.56;;;-0.23;95.81
51359;BME280;37448;51.588;7.248;2023-12-04T02:55:49;100645.78;;;-0.21;95.76
51359;BME280;37448;51.588;7.248;2023-12-04T02:57:49;100643.34;;;-0.17;95.49
51359;BME280;37448;51.588;7.248;2023-12-04T02:59:50;100637.50;;;-0.11;97.47
51359;BME280;37448;51.588;7.248;2023-12-04T03:01:50;100639.16;;;-0.13;96.65
51359;BME280;37448;51.588;7.248;2023-12-04T03:03:50;100631.50;;;-0.11;97.12
51359;BME280;37448;51.588;7.248;2023-12-04T03:05:51;100632.34;;;-0.12;94.45
51359;BME280;37448;51.588;7.248;2023-12-04T03:07:51;100629.00;;;-0.10;94.48
51359;BME280;37448;51.588;7.248;2023-12-04T03:09:52;100623.94;;;-0.07;95.78
51359;BME280;37448;51.588;7.248;2023-12-04T03:11:52;100627.28;;;-0.09;95.77
51359;BME280;37448;51.588;7.248;2023-12-04T03:13:52;100616.22;;;-0.08;94.39
51359;BME280;37448;51.588;7.248;2023-12-04T03:15:53;100619.59;;;-0.09;92.53
51359;BME280;37448;51.588;7.248;2023-12-04T03:17:53;100614.47;;;-0.09;94.23
51359;BME280;37448;51.588;7.248;2023-12-04T03:19:53;100609.34;;;-0.09;95.09
51359;BME280;37448;51.588;7.248;2023-12-04T03:21:54;100602.53;;;-0.09;95.72
51359;BME280;37448;51.588;7.248;2023-12-04T03:23:54;100605.97;;;-0.08;94.04
51359;BME280;37448;51.588;7.248;2023-12-04T03:25:55;100604.25;;;-0.08;96.75
51359;BME280;37448;51.588;7.248;2023-12-04T03:27:55;100599.09;;;-0.09;93.87
51359;BME280;37448;51.588;7.248;2023-12-04T03:29:56;100596.56;;;-0.08;93.42
51359;BME280;37448;51.588;7.248;2023-12-04T03:31:56;100590.59;;;-0.08;92.39
51359;BME280;37448;51.588;7.248;2023-12-04T03:33:56;100587.19;;;-0.07;90.69
51359;BME280;37448;51.588;7.248;2023-12-04T03:35:59;100576.94;;;-0.07;92.78
51359;BME280;37448;51.588;7.248;2023-12-04T03:37:59;100576.13;;;-0.06;94.31
51359;BME280;37448;51.588;7.248;2023-12-04T03:40:00;100573.50;;;-0.08;91.07
51359;BME280;37448;51.588;7.248;2023-12-04T03:42:00;100574.34;;;-0.09;91.24
51359;BME280;37448;51.588;7.248;2023-12-04T03:44:01;100570.16;;;-0.05;89.38
51359;BME280;37448;51.588;7.248;2023-12-04T03:46:01;100575.28;;;-0.05;93.75
51359;BME280;37448;51.588;7.248;2023-12-04T03:48:01;100575.28;;;-0.05;94.16
51359;BME280;37448;51.588;7.248;2023-12-04T03:50:02;100569.34;;;-0.04;94.62
51359;BME280;37448;51.588;7.248;2023-12-04T03:52:02;100570.16;;;-0.05;93.16
51359;BME280;37448;51.588;7.248;2023-12-04T03:54:03;100565.88;;;-0.06;91.92
51359;BME280;37448;51.588;7.248;2023-12-04T03:56:03;100554.72;;;-0.08;93.88
51359;BME280;37448;51.588;7.248;2023-12-04T03:58:04;100557.34;;;-0.05;95.41
51359;BME280;37448;51.588;7.248;2023-12-04T04:00:05;100559.03;;;-0.06;91.09
51359;BME280;37448;51.588;7.248;2023-12-04T04:02:11;100554.78;;;-0.05;87.48
51359;BME280;37448;51.588;7.248;2023-12-04T04:04:12;100553.97;;;-0.03;86.76
51359;BME280;37448;51.588;7.248;2023-12-04T04:06:12;100547.22;;;0.01;91.23
51359;BME280;37448;51.588;7.248;2023-12-04T04:08:12;100543.75;;;-0.01;90.82
51359;BME280;37448;51.588;7.248;2023-12-04T04:10:13;100538.63;;;-0.01;86.55
51359;BME280;37448;51.588;7.248;2023-12-04T04:12:13;100550.75;;;0.06;87.10
51359;BME280;37448;51.588;7.248;2023-12-04T04:14:14;100548.19;;;0.06;90.12
51359;BME280;37448;51.588;7.248;2023-12-04T04:16:15;100546.53;;;0.08;88.17
51359;BME280;37448;51.588;7.248;2023-12-04T04:18:18;100544.03;;;0.10;88.65
51359;BME280;37448;51.588;7.248;2023-12-04T04:20:19;100548.34;;;0.12;88.11
51359;BME280;37448;51.588;7.248;2023-12-04T04:22:21;100532.97;;;0.12;91.51
51359;BME280;37448;51.588;7.248;2023-12-04T04:24:21;100532.97;;;0.12;88.73
51359;BME280;37448;51.588;7.248;2023-12-04T04:26:22;100533.78;;;0.11;88.03
51359;BME280;37448;51.588;7.248;2023-12-04T04:28:22;100531.22;;;0.11;86.16
51359;BME280;37448;51.588;7.248;2023-12-04T04:30:23;100525.31;;;0.16;88.19
51359;BME280;37448;51.588;7.248;2023-12-04T04:32:24;100517.50;;;0.09;85.02
51359;BME280;37448;51.588;7.248;2023-12-04T04:34:24;100522.81;;;0.17;86.21
51359;BME280;37448;51.588;7.248;2023-12-04T04:36:24;100516.84;;;0.17;89.68
51359;BME280;37448;51.588;7.248;2023-12-04T04:38:25;100521.13;;;0.18;90.98
51359;BME280;37448;51.588;7.248;2023-12-04T04:40:25;100518.47;;;0.15;89.14
51359;BME280;37448;51.588;7.248;2023-12-04T04:42:26;100510.78;;;0.15;87.24
51359;BME280;37448;51.588;7.248;2023-12-04T04:44:26;100514.19;;;0.13;85.98
51359;BME280;37448;51.588;7.248;2023-12-04T04:46:26;100508.22;;;0.15;87.06
51359;BME280;37448;51.588;7.248;2023-12-04T04:48:27;100508.31;;;0.19;89.79
51359;BME280;37448;51.588;7.248;2023-12-04T04:50:28;100516.91;;;0.20;88.49
51359;BME280;37448;51.588;7.248;2023-12-04T04:52:28;100515.19;;;0.19;85.71
51359;BME280;37448;51.588;7.248;2023-12-04T04:54:31;100515.19;;;0.19;88.07
51359;BME280;37448;51.588;7.248;2023-12-04T04:56:32;100504.09;;;0.20;85.58
51359;BME280;37448;51.588;7.248;2023-12-04T04:58:33;100507.47;;;0.19;89.46
51359;BME280;37448;51.588;7.248;2023-12-04T05:00:33;100498.06;;;0.18;87.52
51359;BME280;37448;51.588;7.248;2023-12-04T05:02:34;100512.59;;;0.19;87.55
51359;BME280;37448;51.588;7.248;2023-12-04T05:04:36;100514.34;;;0.20;82.86
51359;BME280;37448;51.588;7.248;2023-12-04T05:06:36;100498.88;;;0.17;85.06
51359;BME280;37448;51.588;7.248;2023-12-04T05:08:37;100504.94;;;0.20;87.86
51359;BME280;37448;51.588;7.248;2023-12-04T05:10:39;100498.91;;;0.18;87.04
51359;BME280;37448;51.588;7.248;2023-12-04T05:12:39;100505.81;;;0.21;87.59
51359;BME280;37448;51.588;7.248;2023-12-04T05:14:39;100499.03;;;0.23;86.13
51359;BME280;37448;51.588;7.248;2023-12-04T05:16:40;100495.56;;;0.21;87.29
51359;BME280;37448;51.588;7.248;2023-12-04T05:18:40;100491.31;;;0.23;89.57
51359;BME280;37448;51.588;7.248;2023-12-04T05:20:41;100490.50;;;0.24;88.03
51359;BME280;37448;51.588;7.248;2023-12-04T05:22:42;100485.34;;;0.24;89.50
51359;BME280;37448;51.588;7.248;2023-12-04T05:24:42;100483.56;;;0.20;85.94
51359;BME280;37448;51.588;7.248;2023-12-04T05:26:43;100485.34;;;0.24;83.77
51359;BME280;37448;51.588;7.248;2023-12-04T05:28:43;100475.13;;;0.25;88.06
51359;BME280;37448;51.588;7.248;2023-12-04T05:30:44;100489.66;;;0.25;89.68
51359;BME280;37448;51.588;7.248;2023-12-04T05:32:44;100481.91;;;0.22;89.08
51359;BME280;37448;51.588;7.248;2023-12-04T05:34:45;100483.63;;;0.23;83.00
51359;BME280;37448;51.588;7.248;2023-12-04T05:36:45;100481.97;;;0.25;84.24
51359;BME280;37448;51.588;7.248;2023-12-04T05:38:45;100485.31;;;0.22;84.32
51359;BME280;37448;51.588;7.248;2023-12-04T05:40:46;100480.22;;;0.24;88.08
51359;BME280;37448;51.588;7.248;2023-12-04T05:42:46;100474.22;;;0.22;87.06
51359;BME280;37448;51.588;7.248;2023-12-04T05:44:47;100472.47;;;0.21;85.19
51359;BME280;37448;51.588;7.248;2023-12-04T05:46:47;100463.88;;;0.19;88.88
51359;BME280;37448;51.588;7.248;2023-12-04T05:48:48;100470.75;;;0.20;88.30
51359;BME280;37448;51.588;7.248;2023-12-04T05:50:48;100465.56;;;0.17;86.96
51359;BME280;37448;51.588;7.248;2023-12-04T05:52:50;100462.97;;;0.17;87.69
51359;BME280;37448;51.588;7.248;2023-12-04T05:54:50;100458.69;;;0.17;88.68
51359;BME280;37448;51.588;7.248;2023-12-04T05:56:51;100469.03;;;0.20;88.92
51359;BME280;37448;51.588;7.248;2023-12-04T05:58:51;100463.06;;;0.20;84.04
51359;BME280;37448;51.588;7.248;2023-12-04T06:00:52;100468.19;;;0.20;84.69
51359;BME280;37448;51.588;7.248;2023-12-04T06:02:52;100477.56;;;0.19;87.20
51359;BME280;37448;51.588;7.248;2023-12-04T06:04:53;100470.69;;;0.17;86.35
51359;BME280;37448;51.588;7.248;2023-12-04T06:06:53;100470.75;;;0.20;86.79
51359;BME280;37448;51.588;7.248;2023-12-04T06:08:53;100479.34;;;0.22;88.24
51359;BME280;37448;51.588;7.248;2023-12-04T06:10:53;100470.69;;;0.18;86.67
51359;BME280;37448;51.588;7.248;2023-12-04T06:12:54;100471.56;;;0.19;86.57
51359;BME280;37448;51.588;7.248;2023-12-04T06:14:54;100480.16;;;0.21;86.85
51359;BME280;37448;51.588;7.248;2023-12-04T06:16:54;100477.66;;;0.24;87.65
51359;BME280;37448;51.588;7.248;2023-12-04T06:18:55;100472.47;;;0.21;87.51
51359;BME280;37448;51.588;7.248;2023-12-04T06:20:55;100475.88;;;0.21;85.56
51359;BME280;37448;51.588;7.248;2023-12-04T06:22:56;100475.09;;;0.24;88.30
51359;BME280;37448;51.588;7.248;2023-12-04T06:24:56;100475.94;;;0.23;88.07
51359;BME280;37448;51.588;7.248;2023-12-04T06:26:57;100466.50;;;0.22;86.96
51359;BME280;37448;51.588;7.248;2023-12-04T06:28:57;100466.50;;;0.22;88.43
51359;BME280;37448;51.588;7.248;2023-12-04T06:30:58;100465.63;;;0.20;84.85
51359;BME280;37448;51.588;7.248;2023-12-04T06:32:59;100460.50;;;0.21;85.29
51359;BME280;37448;51.588;7.248;2023-12-04T06:34:59;100454.59;;;0.24;88.61
51359;BME280;37448;51.588;7.248;2023-12-04T06:37:02;100461.41;;;0.23;87.74
51359;BME280;37448;51.588;7.248;2023-12-04T06:39:04;100452.84;;;0.23;87.98
51359;BME280;37448;51.588;7.248;2023-12-04T06:41:05;100447.75;;;0.24;87.33
51359;BME280;37448;51.588;7.248;2023-12-04T06:43:06;100445.13;;;0.21;87.34
51359;BME280;37448;51.588;7.248;2023-12-04T06:45:07;100439.09;;;0.19;83.84
51359;BME280;37448;51.588;7.248;2023-12-04T06:47:08;100430.59;;;0.22;89.21
51359;BME280;37448;51.588;7.248;2023-12-04T06:49:11;100439.13;;;0.21;89.73
51359;BME280;37448;51.588;7.248;2023-12-04T06:51:13;100423.75;;;0.21;88.16
51359;BME280;37448;51.588;7.248;2023-12-04T06:53:14;100417.63;;;0.16;84.87
51359;BME280;37448;51.588;7.248;2023-12-04T06:55:14;100414.25;;;0.17;85.42
51359;BME280;37448;51.588;7.248;2023-12-04T06:57:15;100419.38;;;0.17;88.40
51359;BME280;37448;51.588;7.248;2023-12-04T06:59:17;100420.13;;;0.12;84.88
51359;BME280;37448;51.588;7.248;2023-12-04T07:01:18;100413.50;;;0.21;88.44
51359;BME280;37448;51.588;7.248;2023-12-04T07:03:18;100413.50;;;0.21;80.18
51359;BME280;37448;51.588;7.248;2023-12-04T07:05:19;100402.47;;;0.25;79.07
51359;BME280;37448;51.588;7.248;2023-12-04T07:07:20;100405.91;;;0.27;81.40
51359;BME280;37448;51.588;7.248;2023-12-04T07:09:20;100396.56;;;0.29;81.92
51359;BME280;37448;51.588;7.248;2023-12-04T07:11:21;100391.38;;;0.27;83.45
51359;BME280;37448;51.588;7.248;2023-12-04T07:13:21;100395.69;;;0.29;84.27
51359;BME280;37448;51.588;7.248;2023-12-04T07:15:21;100396.56;;;0.29;83.57
51359;BME280;37448;51.588;7.248;2023-12-04T07:17:22;100394.88;;;0.31;81.78
51359;BME280;37448;51.588;7.248;2023-12-04T07:19:22;100388.97;;;0.34;82.20
51359;BME280;37448;51.588;7.248;2023-12-04T07:21:23;100396.66;;;0.35;80.40
51359;BME280;37448;51.588;7.248;2023-12-04T07:23:23;100389.03;;;0.37;85.76
51359;BME280;37448;51.588;7.248;2023-12-04T07:25:24;100391.53;;;0.35;81.56
51359;BME280;37448;51.588;7.248;2023-12-04T07:27:24;100384.69;;;0.34;79.28
51359;BME280;37448;51.588;7.248;2023-12-04T07:29:25;100374.41;;;0.34;81.81
51359;BME280;37448;51.588;7.248;2023-12-04T07:31:25;100377.03;;;0.36;78.60
51359;BME280;37448;51.588;7.248;2023-12-04T07:33:26;100374.47;;;0.37;78.85
51359;BME280;37448;51.588;7.248;2023-12-04T07:35:27;100371.06;;;0.38;82.39
51359;BME280;37448;51.588;7.248;2023-12-04T07:37:27;100367.69;;;0.39;80.11
51359;BME280;37448;51.588;7.248;2023-12-04T07:39:30;100370.25;;;0.39;77.69
51359;BME280;37448;51.588;7.248;2023-12-04T07:41:30;100371.16;;;0.41;79.76
51359;BME280;37448;51.588;7.248;2023-12-04T07:43:31;100366.09;;;0.45;85.24
51359;BME280;37448;51.588;7.248;2023-12-04T07:45:31;100366.09;;;0.45;83.43
51359;BME280;37448;51.588;7.248;2023-12-04T07:47:31;100356.66;;;0.44;85.07
51359;BME280;37448;51.588;7.248;2023-12-04T07:49:32;100357.50;;;0.43;78.55
51359;BME280;37448;51.588;7.248;2023-12-04T07:51:32;100355.00;;;0.47;78.86
51359;BME280;37448;51.588;7.248;2023-12-04T07:53:33;100355.88;;;0.48;76.31
51359;BME280;37448;51.588;7.248;2023-12-04T07:55:33;100349.94;;;0.50;78.59
51359;BME280;37448;51.588;7.248;2023-12-04T07:57:34;100349.13;;;0.53;81.31
51359;BME280;37448;51.588;7.248;2023-12-04T07:59:34;100347.47;;;0.55;76.86
51359;BME280;37448;51.588;7.248;2023-12-04T08:01:35;100348.34;;;0.57;73.83
51359;BME280;37448;51.588;7.248;2023-12-04T08:03:35;100339.88;;;0.61;76.39
51359;BME280;37448;51.588;7.248;2023-12-04T08:05:35;100339.13;;;0.65;79.01
51359;BME280;37448;51.588;7.248;2023-12-04T08:07:36;100339.97;;;0.64;76.17
51359;BME280;37448;51.588;7.248;2023-12-04T08:09:36;100338.28;;;0.68;78.00
51359;BME280;37448;51.588;7.248;2023-12-04T08:11:37;100338.34;;;0.69;75.59
51359;BME280;37448;51.588;7.248;2023-12-04T08:13:40;100334.88;;;0.69;77.13
51359;BME280;37448;51.588;7.248;2023-12-04T08:15:40;100335.81;;;0.73;77.18
51359;BME280;37448;51.588;7.248;2023-12-04T08:17:41;100340.13;;;0.74;77.93
51359;BME280;37448;51.588;7.248;2023-12-04T08:19:41;100332.47;;;0.77;76.72
51359;BME280;37448;51.588;7.248;2023-12-04T08:21:42;100329.91;;;0.77;76.61
51359;BME280;37448;51.588;7.248;2023-12-04T08:23:42;100332.50;;;0.80;75.44
51359;BME280;37448;51.588;7.248;2023-12-04T08:25:42;100322.28;;;0.81;75.85
51359;BME280;37448;51.588;7.248;2023-12-04T08:27:43;100329.09;;;0.81;73.54
51359;BME280;37448;51.588;7.248;2023-12-04T08:29:43;100318.84;;;0.81;77.70
51359;BME280;37448;51.588;7.248;2023-12-04T08:31:44;100317.16;;;0.83;74.42
51359;BME280;37448;51.588;7.248;2023-12-04T08:33:44;100318.88;;;0.84;77.95
51359;BME280;37448;51.588;7.248;2023-12-04T08:35:45;100321.50;;;0.87;73.50
51359;BME280;37448;51.588;7.248;2023-12-04T08:37:45;100319.91;;;0.94;73.90
51359;BME280;37448;51.588;7.248;2023-12-04T08:39:46;100325.03;;;0.92;75.39
51359;BME280;37448;51.588;7.248;2023-12-04T08:41:46;100325.94;;;0.94;77.25
51359;BME280;37448;51.588;7.248;2023-12-04T08:43:50;100335.34;;;0.95;71.60
51359;BME280;37448;51.588;7.248;2023-12-04T08:45:50;100338.81;;;0.97;71.52
51359;BME280;37448;51.588;7.248;2023-12-04T08:47:50;100334.56;;;0.99;73.17
51359;BME280;37448;51.588;7.248;2023-12-04T08:49:51;100327.75;;;1.02;71.88
51359;BME280;37448;51.588;7.248;2023-12-04T08:51:51;100332.88;;;1.02;73.01
51359;BME280;37448;51.588;7.248;2023-12-04T08:53:52;100334.63;;;1.03;74.09
51359;BME280;37448;51.588;7.248;2023-12-04T08:55:53;100329.47;;;1.01;74.83
51359;BME280;37448;51.588;7.248;2023-12-04T08:57:53;100324.34;;;1.03;77.77
51359;BME280;37448;51.588;7.248;2023-12-04T08:59:54;100329.47;;;1.03;77.70
51359;BME280;37448;51.588;7.248;2023-12-04T09:01:54;100321.78;;;1.03;72.61
51359;BME280;37448;51.588;7.248;2023-12-04T09:03:54;100308.09;;;1.04;80.28
51359;BME280;37448;51.588;7.248;2023-12-04T09:05:56;100308.13;;;1.05;78.90
51359;BME280;37448;51.588;7.248;2023-12-04T09:07:56;100309.81;;;1.05;74.69
51359;BME280;37448;51.588;7.248;2023-12-04T09:09:57;100315.00;;;1.06;75.60
51359;BME280;37448;51.588;7.248;2023-12-04T09:11:57;100307.31;;;1.08;77.17
51359;BME280;37448;51.588;7.248;2023-12-04T09:13:58;100300.47;;;1.10;77.75
51359;BME280;37448;51.588;7.248;2023-12-04T09:15:58;100291.94;;;1.11;75.49
51359;BME280;37448;51.588;7.248;2023-12-04T09:17:59;100294.53;;;1.12;76.79
51359;BME280;37448;51.588;7.248;2023-12-04T09:19:59;100292.88;;;1.14;73.10
51359;BME280;37448;51.588;7.248;2023-12-04T09:22:00;100295.50;;;1.19;72.94
51359;BME280;37448;51.588;7.248;2023-12-04T09:24:00;100297.25;;;1.20;74.58
51359;BME280;37448;51.588;7.248;2023-12-04T09:26:01;100304.09;;;1.21;71.98
51359;BME280;37448;51.588;7.248;2023-12-04T09:28:01;100287.84;;;1.24;73.47
51359;BME280;37448;51.588;7.248;2023-12-04T09:30:02;100295.59;;;1.25;71.02
51359;BME280;37448;51.588;7.248;2023-12-04T09:32:04;100290.47;;;1.25;76.32
51359;BME280;37448;51.588;7.248;2023-12-04T09:34:05;100288.78;;;1.27;76.34
51359;BME280;37448;51.588;7.248;2023-12-04T09:36:06;100285.38;;;1.28;74.82
51359;BME280;37448;51.588;7.248;2023-12-04T09:38:07;100272.56;;;1.30;73.95
51359;BME280;37448;51.588;7.248;2023-12-04T09:40:07;100281.06;;;1.27;75.43
51359;BME280;37448;51.588;7.248;2023-12-04T09:42:09;100271.72;;;1.33;75.03
51359;BME280;37448;51.588;7.248;2023-12-04T09:44:10;100269.19;;;1.34;73.27
51359;BME280;37448;51.588;7.248;2023-12-04T09:46:11;100258.06;;;1.35;76.93
51359;BME280;37448;51.588;7.248;2023-12-04T09:48:11;100265.72;;;1.32;72.23
51359;BME280;37448;51.588;7.248;2023-12-04T09:50:12;100256.38;;;1.37;69.25
51359;BME280;37448;51.588;7.248;2023-12-04T09:52:12;100253.84;;;1.40;74.03
51359;BME280;37448;51.588;7.248;2023-12-04T09:54:16;100247.03;;;1.41;67.84
51359;BME280;37448;51.588;7.248;2023-12-04T09:56:18;100250.47;;;1.43;69.58
51359;BME280;37448;51.588;7.248;2023-12-04T09:58:20;100241.06;;;1.45;69.53
51359;BME280;37448;51.588;7.248;2023-12-04T10:00:21;100243.69;;;1.48;74.08
51359;BME280;37448;51.588;7.248;2023-12-04T10:02:22;100236.81;;;1.47;72.05
51359;BME280;37448;51.588;7.248;2023-12-04T10:04:22;100230.84;;;1.48;74.44
51359;BME280;37448;51.588;7.248;2023-12-04T10:06:26;100230.03;;;1.51;70.77
51359;BME280;37448;51.588;7.248;2023-12-04T10:08:28;100227.47;;;1.52;72.23
51359;BME280;37448;51.588;7.248;2023-12-04T10:10:28;100233.50;;;1.56;68.85
51359;BME280;37448;51.588;7.248;2023-12-04T10:12:29;100219.84;;;1.60;70.63
51359;BME280;37448;51.588;7.248;2023-12-04T10:14:29;100213.91;;;1.63;69.75
51359;BME280;37448;51.588;7.248;2023-12-04T10:16:34;100207.91;;;1.65;72.32
51359;BME280;37448;51.588;7.248;2023-12-04T10:18:35;100205.34;;;1.65;72.10
51359;BME280;37448;51.588;7.248;2023-12-04T10:20:55;100204.50;;;1.66;71.08
51359;BME280;37448;51.588;7.248;2023-12-04T10:22:57;100210.53;;;1.67;71.61
51359;BME280;37448;51.588;7.248;2023-12-04T10:24:58;100206.22;;;1.67;69.66
51359;BME280;37448;51.588;7.248;2023-12-04T10:26:59;100198.53;;;1.69;70.72
51359;BME280;37448;51.588;7.248;2023-12-04T10:29:01;100193.41;;;1.70;70.24
51359;BME280;37448;51.588;7.248;2023-12-04T10:31:02;100184.88;;;1.73;69.63
51359;BME280;37448;51.588;7.248;2023-12-04T10:33:04;100184.94;;;1.79;69.46
51359;BME280;37448;51.588;7.248;2023-12-04T10:35:05;100173.81;;;1.80;73.07